createdAt,value
2018-07-01T00:00:13.509Z,15.88
2018-07-01T00:02:41.574Z,15.83
2018-07-01T00:05:10.049Z,15.84
2018-07-01T00:07:38.028Z,15.84
2018-07-01T00:10:07.444Z,15.76
2018-07-01T00:12:35.725Z,15.78
2018-07-01T00:15:04.404Z,15.69
2018-07-01T00:17:32.470Z,15.74
2018-07-01T00:20:00.367Z,15.77
2018-07-01T00:22:28.305Z,15.71
2018-07-01T00:24:56.261Z,15.71
2018-07-01T00:27:24.184Z,15.72
2018-07-01T00:29:52.090Z,15.63
2018-07-01T00:32:20.017Z,15.67
2018-07-01T00:34:48.012Z,15.61
2018-07-01T00:37:15.910Z,15.61
2018-07-01T00:39:43.809Z,15.55
2018-07-01T00:42:11.625Z,15.56
2018-07-01T00:44:39.608Z,15.54
2018-07-01T00:47:07.450Z,15.61
2018-07-01T00:49:35.370Z,15.50
2018-07-01T00:52:03.302Z,15.53
2018-07-01T00:54:31.213Z,15.52
2018-07-01T00:56:59.149Z,15.52
2018-07-01T00:59:26.994Z,15.49
2018-07-01T01:01:55.489Z,15.46
2018-07-01T01:04:23.441Z,15.38
2018-07-01T01:06:51.340Z,15.36
2018-07-01T01:09:19.232Z,15.38
2018-07-01T01:11:47.175Z,15.34
2018-07-01T01:14:15.113Z,15.21
2018-07-01T01:16:43.028Z,15.27
2018-07-01T01:19:10.965Z,15.22
2018-07-01T01:21:38.897Z,15.15
2018-07-01T01:24:06.777Z,15.08
2018-07-01T01:26:34.636Z,15.06
2018-07-01T01:29:02.666Z,14.99
2018-07-01T01:31:30.881Z,14.81
2018-07-01T01:33:59.012Z,14.78
2018-07-01T01:36:29.053Z,14.75
2018-07-01T01:38:59.478Z,14.74
2018-07-01T01:41:32.819Z,14.60
2018-07-01T01:45:04.082Z,14.67
2018-07-01T01:48:34.929Z,14.60
2018-07-01T01:51:09.774Z,14.47
2018-07-01T01:53:43.289Z,14.48
2018-07-01T01:56:21.689Z,14.29
2018-07-01T01:59:01.096Z,14.27
2018-07-01T02:01:32.336Z,14.28
2018-07-01T02:04:09.877Z,14.36
2018-07-01T02:06:40.925Z,14.18
2018-07-01T02:09:17.153Z,14.13
2018-07-01T02:11:47.778Z,14.11
2018-07-01T02:14:22.649Z,13.93
2018-07-01T02:16:53.413Z,13.94
2018-07-01T02:19:21.405Z,13.89
2018-07-01T02:21:49.538Z,13.87
2018-07-01T02:24:22.031Z,13.85
2018-07-01T02:26:49.917Z,13.82
2018-07-01T02:29:17.877Z,13.78
2018-07-01T02:31:45.705Z,13.84
2018-07-01T02:34:13.620Z,13.79
2018-07-01T02:36:41.504Z,13.80
2018-07-01T02:39:10.069Z,13.80
2018-07-01T02:41:38.526Z,13.59
2018-07-01T02:44:06.723Z,13.56
2018-07-01T02:46:34.601Z,13.52
2018-07-01T02:49:02.893Z,13.50
2018-07-01T02:51:30.865Z,13.59
2018-07-01T02:53:58.774Z,13.41
2018-07-01T02:56:26.731Z,13.48
2018-07-01T02:58:54.589Z,13.49
2018-07-01T03:01:22.505Z,13.46
2018-07-01T03:03:50.442Z,13.39
2018-07-01T03:06:18.397Z,13.47
2018-07-01T03:08:46.316Z,13.30
2018-07-01T03:11:14.139Z,13.27
2018-07-01T03:13:42.281Z,13.30
2018-07-01T03:16:10.152Z,13.36
2018-07-01T03:18:38.005Z,13.20
2018-07-01T03:21:05.933Z,13.08
2018-07-01T03:23:33.841Z,13.08
2018-07-01T03:26:01.714Z,12.99
2018-07-01T03:28:29.612Z,12.99
2018-07-01T03:30:57.449Z,13.00
2018-07-01T03:33:25.328Z,12.94
2018-07-01T03:35:53.265Z,12.79
2018-07-01T03:38:21.141Z,12.82
2018-07-01T03:40:48.912Z,12.84
2018-07-01T03:43:16.841Z,12.81
2018-07-01T03:45:44.694Z,12.85
2018-07-01T03:48:12.629Z,12.82
2018-07-01T03:50:40.499Z,12.79
2018-07-01T03:53:08.371Z,12.69
2018-07-01T03:55:36.249Z,12.70
2018-07-01T03:58:04.492Z,12.74
2018-07-01T04:00:32.403Z,12.76
2018-07-01T04:03:00.173Z,12.71
2018-07-01T04:05:28.173Z,12.75
2018-07-01T04:07:56.097Z,12.73
2018-07-01T04:10:23.944Z,12.72
2018-07-01T04:12:51.935Z,12.77
2018-07-01T04:15:19.796Z,12.82
2018-07-01T04:17:47.662Z,12.84
2018-07-01T04:20:15.530Z,12.94
2018-07-01T04:22:43.453Z,12.96
2018-07-01T04:25:11.317Z,12.97
2018-07-01T04:27:39.155Z,12.97
2018-07-01T04:30:07.103Z,13.02
2018-07-01T04:32:35.065Z,13.08
2018-07-01T04:35:02.997Z,13.15
2018-07-01T04:37:30.890Z,13.23
2018-07-01T04:39:58.698Z,13.22
2018-07-01T04:42:26.598Z,13.34
2018-07-01T04:44:54.509Z,13.40
2018-07-01T04:47:22.421Z,13.49
2018-07-01T04:49:50.380Z,13.65
2018-07-01T04:52:18.289Z,14.01
2018-07-01T04:54:46.231Z,14.59
2018-07-01T04:57:14.089Z,15.45
2018-07-01T04:59:41.981Z,16.21
2018-07-01T05:02:09.985Z,17.37
2018-07-01T05:04:37.748Z,18.45
2018-07-01T05:07:05.641Z,19.29
2018-07-01T05:09:33.516Z,20.17
2018-07-01T05:12:01.437Z,21.02
2018-07-01T05:14:29.345Z,21.89
2018-07-01T05:16:57.316Z,22.78
2018-07-01T05:19:25.262Z,23.68
2018-07-01T05:21:53.097Z,24.35
2018-07-01T05:24:21.111Z,24.92
2018-07-01T05:26:48.953Z,25.64
2018-07-01T05:29:16.817Z,26.07
2018-07-01T05:31:44.729Z,26.42
2018-07-01T05:34:12.640Z,27.02
2018-07-01T05:36:40.605Z,27.20
2018-07-01T05:39:10.237Z,27.46
2018-07-01T05:41:38.166Z,28.07
2018-07-01T05:44:06.262Z,28.49
2018-07-01T05:46:34.190Z,29.13
2018-07-01T05:49:02.321Z,29.38
2018-07-01T05:51:30.490Z,29.59
2018-07-01T05:53:58.436Z,29.99
2018-07-01T05:56:26.329Z,29.17
2018-07-01T05:58:54.497Z,28.98
2018-07-01T06:01:22.365Z,28.54
2018-07-01T06:03:50.252Z,27.98
2018-07-01T06:06:18.149Z,27.10
2018-07-01T06:08:46.116Z,27.25
2018-07-01T06:11:13.955Z,26.44
2018-07-01T06:13:41.831Z,26.60
2018-07-01T06:16:09.709Z,26.33
2018-07-01T06:18:37.632Z,26.37
2018-07-01T06:21:05.511Z,26.19
2018-07-01T06:23:33.417Z,26.20
2018-07-01T06:26:01.401Z,25.85
2018-07-01T06:28:29.241Z,26.00
2018-07-01T06:30:57.165Z,25.91
2018-07-01T06:33:25.090Z,26.04
2018-07-01T06:35:53.010Z,25.74
2018-07-01T06:38:21.821Z,25.76
2018-07-01T06:40:51.007Z,25.19
2018-07-01T06:43:21.630Z,25.12
2018-07-01T06:45:51.625Z,25.16
2018-07-01T06:48:21.903Z,24.82
2018-07-01T06:50:51.426Z,24.87
2018-07-01T06:53:21.615Z,24.01
2018-07-01T06:55:52.000Z,23.60
2018-07-01T06:58:21.707Z,24.15
2018-07-01T07:00:51.868Z,23.82
2018-07-01T07:03:21.914Z,24.02
2018-07-01T07:05:50.449Z,24.29
2018-07-01T07:08:18.402Z,24.38
2018-07-01T07:10:46.253Z,24.10
2018-07-01T07:13:14.098Z,24.26
2018-07-01T07:15:42.003Z,23.69
2018-07-01T07:18:09.944Z,23.99
2018-07-01T07:20:37.836Z,23.97
2018-07-01T07:23:06.716Z,23.74
2018-07-01T07:25:34.585Z,23.39
2018-07-01T07:28:02.440Z,23.07
2018-07-01T07:30:30.517Z,23.34
2018-07-01T07:32:58.437Z,23.77
2018-07-01T07:35:26.473Z,23.77
2018-07-01T07:37:54.594Z,23.58
2018-07-01T07:40:22.433Z,23.32
2018-07-01T07:42:50.348Z,23.45
2018-07-01T07:45:18.292Z,23.40
2018-07-01T07:47:46.153Z,23.35
2018-07-01T07:50:14.073Z,23.18
2018-07-01T07:52:42.020Z,23.06
2018-07-01T07:55:09.937Z,23.09
2018-07-01T07:57:37.841Z,23.14
2018-07-01T08:00:05.817Z,22.64
2018-07-01T08:02:33.896Z,22.85
2018-07-01T08:05:02.226Z,22.93
2018-07-01T08:07:30.201Z,22.89
2018-07-01T08:09:58.280Z,22.72
2018-07-01T08:12:26.345Z,22.78
2018-07-01T08:14:54.281Z,22.74
2018-07-01T08:17:22.161Z,22.86
2018-07-01T08:19:50.023Z,22.82
2018-07-01T08:22:17.913Z,22.70
2018-07-01T08:24:45.850Z,22.58
2018-07-01T08:27:13.645Z,22.54
2018-07-01T08:29:41.441Z,22.63
2018-07-01T08:32:09.298Z,22.58
2018-07-01T08:34:37.169Z,22.56
2018-07-01T08:37:05.353Z,22.56
2018-07-01T08:39:33.208Z,22.74
2018-07-01T08:42:34.185Z,22.68
2018-07-01T08:45:03.537Z,22.71
2018-07-01T08:47:32.056Z,22.76
2018-07-01T08:49:59.922Z,22.88
2018-07-01T08:52:27.874Z,22.77
2018-07-01T08:54:55.699Z,22.75
2018-07-01T08:57:23.849Z,23.00
2018-07-01T08:59:51.732Z,22.91
2018-07-01T09:02:20.453Z,22.68
2018-07-01T09:04:48.410Z,22.55
2018-07-01T09:07:17.003Z,22.66
2018-07-01T09:09:45.149Z,22.84
2018-07-01T09:12:13.072Z,22.81
2018-07-01T09:14:41.507Z,22.88
2018-07-01T09:17:09.539Z,22.76
2018-07-01T09:19:37.325Z,22.86
2018-07-01T09:22:05.234Z,23.00
2018-07-01T09:24:33.106Z,23.11
2018-07-01T09:27:01.182Z,23.04
2018-07-01T09:29:29.660Z,22.96
2018-07-01T09:31:57.670Z,22.99
2018-07-01T09:34:26.644Z,23.08
2018-07-01T09:36:55.021Z,23.16
2018-07-01T09:39:23.217Z,23.18
2018-07-01T09:41:52.825Z,23.30
2018-07-01T09:44:20.829Z,23.42
2018-07-01T09:46:48.755Z,23.53
2018-07-01T09:49:16.686Z,23.61
2018-07-01T09:51:44.654Z,24.03
2018-07-01T09:54:12.931Z,24.35
2018-07-01T09:56:42.028Z,25.12
2018-07-01T09:59:10.935Z,25.97
2018-07-01T10:01:40.026Z,26.92
2018-07-01T10:04:07.941Z,28.79
2018-07-01T10:06:35.944Z,29.73
2018-07-01T10:09:08.282Z,30.94
2018-07-01T10:11:36.901Z,31.85
2018-07-01T10:14:06.056Z,32.63
2018-07-01T10:16:34.177Z,33.34
2018-07-01T10:19:02.141Z,33.76
2018-07-01T10:21:30.464Z,34.03
2018-07-01T10:23:58.380Z,34.45
2018-07-01T10:26:26.216Z,35.33
2018-07-01T10:29:06.390Z,35.63
2018-07-01T10:31:35.140Z,35.99
2018-07-01T10:34:03.426Z,35.98
2018-07-01T10:36:31.361Z,37.09
2018-07-01T10:38:59.280Z,36.94
2018-07-01T10:41:27.213Z,37.82
2018-07-01T10:43:56.762Z,37.40
2018-07-01T10:46:24.774Z,38.04
2018-07-01T10:48:52.974Z,38.08
2018-07-01T10:51:20.824Z,38.00
2018-07-01T10:53:48.695Z,38.39
2018-07-01T10:56:16.565Z,38.41
2018-07-01T10:58:44.377Z,37.92
2018-07-01T11:01:12.304Z,38.48
2018-07-01T11:03:40.409Z,38.27
2018-07-01T11:06:08.463Z,38.38
2018-07-01T11:08:36.869Z,38.82
2018-07-01T11:11:05.098Z,38.48
2018-07-01T11:13:33.253Z,37.80
2018-07-01T11:16:01.644Z,38.75
2018-07-01T11:18:30.201Z,39.11
2018-07-01T11:20:59.164Z,39.84
2018-07-01T11:23:27.037Z,39.68
2018-07-01T11:25:54.912Z,39.65
2018-07-01T11:28:22.763Z,39.71
2018-07-01T11:30:50.706Z,39.67
2018-07-01T11:33:18.671Z,40.06
2018-07-01T11:35:46.680Z,39.93
2018-07-01T11:38:15.431Z,39.97
2018-07-01T11:40:43.249Z,39.82
2018-07-01T11:43:12.494Z,39.87
2018-07-01T11:45:40.440Z,40.01
2018-07-01T11:48:08.330Z,40.03
2018-07-01T11:50:36.157Z,39.62
2018-07-01T11:53:04.328Z,39.82
2018-07-01T11:55:32.510Z,39.77
2018-07-01T11:58:00.309Z,39.75
2018-07-01T12:00:28.200Z,39.83
2018-07-01T12:02:56.306Z,39.55
2018-07-01T12:05:24.481Z,38.47
2018-07-01T12:07:52.424Z,39.28
2018-07-01T12:10:20.314Z,39.59
2018-07-01T12:12:49.041Z,39.77
2018-07-01T12:15:17.105Z,39.05
2018-07-01T12:17:45.053Z,39.17
2018-07-01T12:20:12.908Z,39.31
2018-07-01T12:22:40.837Z,39.48
2018-07-01T12:25:08.717Z,39.79
2018-07-01T12:27:36.724Z,38.94
2018-07-01T12:30:06.647Z,38.84
2018-07-01T12:32:34.490Z,38.97
2018-07-01T12:35:02.387Z,38.50
2018-07-01T12:37:30.273Z,38.47
2018-07-01T12:40:00.384Z,37.98
2018-07-01T12:42:28.599Z,37.82
2018-07-01T12:44:56.527Z,37.67
2018-07-01T12:47:24.408Z,37.95
2018-07-01T12:49:52.317Z,38.28
2018-07-01T12:52:20.165Z,37.80
2018-07-01T12:54:48.032Z,37.47
2018-07-01T12:57:15.949Z,37.11
2018-07-01T12:59:43.873Z,37.59
2018-07-01T13:02:11.744Z,36.87
2018-07-01T13:04:39.736Z,36.71
2018-07-01T13:07:08.029Z,36.63
2018-07-01T13:09:36.094Z,36.18
2018-07-01T13:12:04.195Z,36.15
2018-07-01T13:14:32.129Z,35.60
2018-07-01T13:16:59.996Z,35.48
2018-07-01T13:19:28.534Z,35.24
2018-07-01T13:21:56.447Z,34.64
2018-07-01T13:24:24.285Z,34.57
2018-07-01T13:26:52.442Z,34.37
2018-07-01T13:29:20.380Z,33.70
2018-07-01T13:31:48.432Z,33.26
2018-07-01T13:34:16.262Z,33.10
2018-07-01T13:36:44.161Z,32.35
2018-07-01T13:39:12.285Z,32.72
2018-07-01T13:41:40.145Z,32.21
2018-07-01T13:44:08.243Z,32.30
2018-07-01T13:46:36.519Z,32.06
2018-07-01T13:49:05.235Z,31.73
2018-07-01T13:51:33.153Z,31.61
2018-07-01T13:54:01.121Z,31.68
2018-07-01T13:56:29.185Z,31.82
2018-07-01T13:58:57.204Z,31.91
2018-07-01T14:01:25.311Z,31.68
2018-07-01T14:03:53.300Z,31.81
2018-07-01T14:06:21.220Z,31.81
2018-07-01T14:08:49.384Z,31.45
2018-07-01T14:11:17.459Z,31.71
2018-07-01T14:13:45.343Z,31.58
2018-07-01T14:16:13.196Z,31.58
2018-07-01T14:18:41.126Z,31.29
2018-07-01T14:21:09.080Z,31.24
2018-07-01T14:23:37.104Z,31.03
2018-07-01T14:26:05.058Z,31.02
2018-07-01T14:28:33.018Z,30.98
2018-07-01T14:31:00.869Z,30.47
2018-07-01T14:33:28.970Z,30.06
2018-07-01T14:35:56.852Z,30.05
2018-07-01T14:38:24.677Z,29.95
2018-07-01T14:40:52.569Z,29.85
2018-07-01T14:43:20.975Z,29.61
2018-07-01T14:45:48.873Z,29.36
2018-07-01T14:48:16.772Z,29.21
2018-07-01T14:50:44.901Z,29.25
2018-07-01T14:53:12.757Z,28.83
2018-07-01T14:55:40.641Z,28.90
2018-07-01T14:58:08.838Z,28.86
2018-07-01T15:00:36.777Z,28.79
2018-07-01T15:03:04.853Z,28.61
2018-07-01T15:05:32.817Z,28.41
2018-07-01T15:08:00.717Z,28.37
2018-07-01T15:10:28.654Z,28.35
2018-07-01T15:12:56.553Z,28.33
2018-07-01T15:15:24.566Z,28.23
2018-07-01T15:17:52.497Z,28.09
2018-07-01T15:20:20.604Z,28.15
2018-07-01T15:22:48.515Z,28.21
2018-07-01T15:25:16.448Z,28.27
2018-07-01T15:27:44.340Z,28.25
2018-07-01T15:30:12.189Z,28.13
2018-07-01T15:32:40.157Z,27.98
2018-07-01T15:35:08.005Z,27.99
2018-07-01T15:37:35.856Z,27.98
2018-07-01T15:40:04.361Z,28.07
2018-07-01T15:42:32.175Z,28.07
2018-07-01T15:45:00.140Z,28.07
2018-07-01T15:47:28.037Z,28.04
2018-07-01T15:49:55.868Z,27.93
2018-07-01T15:52:23.752Z,27.87
2018-07-01T15:54:51.709Z,27.83
2018-07-01T15:57:19.600Z,27.77
2018-07-01T15:59:47.890Z,27.79
2018-07-01T16:02:15.801Z,27.78
2018-07-01T16:04:43.769Z,27.61
2018-07-01T16:07:11.742Z,27.52
2018-07-01T16:09:39.701Z,27.55
2018-07-01T16:12:07.645Z,27.56
2018-07-01T16:14:35.509Z,27.48
2018-07-01T16:17:03.449Z,27.42
2018-07-01T16:19:31.329Z,27.29
2018-07-01T16:21:59.260Z,27.17
2018-07-01T16:24:27.182Z,27.23
2018-07-01T16:26:56.512Z,27.28
2018-07-01T16:29:24.333Z,27.34
2018-07-01T16:31:52.247Z,27.25
2018-07-01T16:34:20.207Z,27.26
2018-07-01T16:36:48.102Z,27.17
2018-07-01T16:39:15.976Z,27.11
2018-07-01T16:41:43.825Z,27.10
2018-07-01T16:44:11.703Z,27.03
2018-07-01T16:46:39.666Z,27.04
2018-07-01T16:49:07.506Z,26.98
2018-07-01T16:51:35.310Z,26.98
2018-07-01T16:54:03.382Z,26.89
2018-07-01T16:56:31.289Z,26.83
2018-07-01T16:58:59.168Z,26.81
2018-07-01T17:01:27.080Z,26.79
2018-07-01T17:03:55.018Z,26.61
2018-07-01T17:06:22.921Z,26.51
2018-07-01T17:08:50.886Z,26.61
2018-07-01T17:11:18.822Z,26.58
2018-07-01T17:13:46.745Z,26.58
2018-07-01T17:16:14.637Z,26.47
2018-07-01T17:18:42.500Z,26.48
2018-07-01T17:21:10.613Z,26.33
2018-07-01T17:23:38.577Z,26.34
2018-07-01T17:26:06.649Z,26.35
2018-07-01T17:28:34.537Z,26.39
2018-07-01T17:31:08.010Z,26.34
2018-07-01T17:33:36.212Z,26.25
2018-07-01T17:36:04.837Z,26.25
2018-07-01T17:38:32.776Z,26.16
2018-07-01T17:41:00.771Z,26.01
2018-07-01T17:43:28.621Z,25.97
2018-07-01T17:45:56.552Z,25.93
2018-07-01T17:48:24.389Z,25.91
2018-07-01T17:50:54.161Z,25.82
2018-07-01T17:53:39.556Z,25.78
2018-07-01T17:56:07.509Z,25.74
2018-07-01T17:58:35.461Z,25.62
2018-07-01T18:01:03.376Z,25.54
2018-07-01T18:03:31.217Z,25.48
2018-07-01T18:05:59.633Z,25.50
2018-07-01T18:08:27.816Z,25.48
2018-07-01T18:10:56.197Z,25.38
2018-07-01T18:13:24.586Z,25.38
2018-07-01T18:15:55.382Z,25.34
2018-07-01T18:18:23.704Z,25.19
2018-07-01T18:20:51.983Z,25.18
2018-07-01T18:25:51.000Z,25.02
2018-07-01T18:28:34.109Z,24.99
2018-07-01T18:30:49.818Z,24.95
2018-07-01T18:33:18.094Z,24.86
2018-07-01T18:35:46.479Z,24.72
2018-07-01T18:38:14.865Z,24.69
2018-07-01T18:40:43.145Z,24.58
2018-07-01T18:43:11.633Z,24.58
2018-07-01T18:45:43.114Z,24.48
2018-07-01T18:48:11.571Z,24.44
2018-07-01T18:50:39.952Z,24.36
2018-07-01T18:53:08.231Z,24.43
2018-07-01T18:55:36.819Z,24.37
2018-07-01T18:58:06.157Z,24.20
2018-07-01T19:00:34.506Z,24.15
2018-07-01T19:03:03.445Z,24.10
2018-07-01T19:05:33.019Z,24.03
2018-07-01T19:08:01.295Z,23.94
2018-07-01T19:10:29.779Z,23.93
2018-07-01T19:12:59.675Z,23.77
2018-07-01T19:15:28.289Z,23.74
2018-07-01T19:17:56.667Z,23.57
2018-07-01T19:20:25.096Z,23.46
2018-07-01T19:22:53.841Z,23.47
2018-07-01T19:25:22.156Z,23.29
2018-07-01T19:27:50.614Z,23.21
2018-07-01T19:30:18.997Z,23.08
2018-07-01T19:32:47.381Z,22.94
2018-07-01T19:35:15.765Z,22.82
2018-07-01T19:37:44.149Z,22.76
2018-07-01T19:40:12.431Z,22.61
2018-07-01T19:42:41.002Z,22.58
2018-07-01T19:45:09.294Z,22.43
2018-07-01T19:47:37.580Z,22.41
2018-07-01T19:50:05.963Z,22.36
2018-07-01T19:52:34.243Z,22.24
2018-07-01T19:55:02.623Z,21.98
2018-07-01T19:57:31.012Z,21.95
2018-07-01T19:59:59.292Z,21.94
2018-07-01T20:02:28.186Z,21.84
2018-07-01T20:04:56.669Z,21.66
2018-07-01T20:07:24.954Z,21.62
2018-07-01T20:09:55.398Z,21.35
2018-07-01T20:12:23.972Z,21.32
2018-07-01T20:14:52.659Z,21.37
2018-07-01T20:17:28.398Z,21.22
2018-07-01T20:19:56.573Z,21.22
2018-07-01T20:22:24.528Z,21.12
2018-07-01T20:24:53.249Z,20.94
2018-07-01T20:27:21.193Z,20.86
2018-07-01T20:29:49.071Z,20.79
2018-07-01T20:32:17.037Z,20.88
2018-07-01T20:34:45.993Z,20.64
2018-07-01T20:37:13.947Z,20.39
2018-07-01T20:39:41.833Z,20.42
2018-07-01T20:42:10.906Z,20.40
2018-07-01T20:44:39.689Z,20.44
2018-07-01T20:47:13.146Z,20.26
2018-07-01T20:49:41.132Z,20.34
2018-07-01T20:52:09.020Z,20.21
2018-07-01T20:54:36.881Z,20.22
2018-07-01T20:57:04.850Z,20.13
2018-07-01T20:59:32.724Z,19.97
2018-07-01T21:02:00.508Z,19.79
2018-07-01T21:04:28.463Z,19.70
2018-07-01T21:06:57.065Z,19.82
2018-07-01T21:09:24.935Z,19.62
2018-07-01T21:11:55.277Z,19.42
2018-07-01T21:14:23.301Z,19.63
2018-07-01T21:16:51.249Z,19.41
2018-07-01T21:19:19.137Z,19.35
2018-07-01T21:21:49.706Z,19.25
2018-07-01T21:24:17.565Z,19.21
2018-07-01T21:26:45.422Z,19.04
2018-07-01T21:29:13.292Z,19.12
2018-07-01T21:31:41.136Z,19.24
2018-07-01T21:34:09.032Z,19.06
2018-07-01T21:36:37.000Z,18.98
2018-07-01T21:39:08.645Z,18.82
2018-07-01T21:41:37.168Z,18.90
2018-07-01T21:44:05.289Z,18.65
2018-07-01T21:46:33.180Z,18.52
2018-07-01T21:49:00.998Z,18.69
2018-07-01T21:51:28.912Z,18.40
2018-07-01T21:53:57.061Z,18.47
2018-07-01T21:56:26.602Z,18.32
2018-07-01T21:58:54.857Z,18.36
2018-07-01T22:01:22.860Z,18.31
2018-07-01T22:03:51.187Z,18.20
2018-07-01T22:06:19.140Z,18.16
2018-07-01T22:08:47.111Z,18.15
2018-07-01T22:12:00.261Z,18.07
2018-07-01T22:14:38.672Z,17.96
2018-07-01T22:17:09.629Z,17.90
2018-07-01T22:19:37.896Z,17.90
2018-07-01T22:22:06.025Z,17.86
2018-07-01T22:24:35.000Z,17.74
2018-07-01T22:27:02.909Z,17.54
2018-07-01T22:29:30.824Z,17.54
2018-07-01T22:31:58.776Z,17.70
2018-07-01T22:34:26.677Z,17.50
2018-07-01T22:36:54.858Z,17.58
2018-07-01T22:39:26.961Z,17.33
2018-07-01T22:41:55.846Z,17.31
2018-07-01T22:44:23.845Z,17.30
2018-07-01T22:46:52.281Z,17.14
2018-07-01T22:49:20.193Z,17.07
2018-07-01T22:51:48.105Z,17.08
2018-07-01T22:54:16.045Z,17.07
2018-07-01T22:56:43.893Z,16.97
2018-07-01T22:59:11.797Z,16.89
2018-07-01T23:01:57.493Z,16.80
2018-07-01T23:04:25.365Z,16.74
2018-07-01T23:06:53.421Z,16.80
2018-07-01T23:09:21.289Z,16.67
2018-07-01T23:11:49.127Z,16.72
2018-07-01T23:14:17.029Z,16.53
2018-07-01T23:16:44.913Z,16.60
2018-07-01T23:19:12.769Z,16.60
2018-07-01T23:21:40.649Z,16.41
2018-07-01T23:24:08.538Z,16.34
2018-07-01T23:26:36.425Z,16.42
2018-07-01T23:29:04.369Z,16.37
2018-07-01T23:31:32.248Z,16.20
2018-07-01T23:34:00.169Z,16.17
2018-07-01T23:36:28.026Z,16.23
2018-07-01T23:38:55.890Z,16.13
2018-07-01T23:41:23.805Z,16.07
2018-07-01T23:43:51.709Z,16.05
2018-07-01T23:46:19.652Z,16.03
2018-07-01T23:48:47.540Z,15.91
2018-07-01T23:51:15.480Z,15.98
2018-07-01T23:53:43.313Z,15.91
2018-07-01T23:56:11.262Z,15.85
2018-07-01T23:58:39.170Z,15.90
